IGO5099 VOHS-VABB
Flight info
| Callsign | IGO5099 |
|---|---|
| Flight time | 1h 10m |
| Altitude | 29000 |
| Route | TAMIV5 APUSU W18 OPAKA EMRAK2A |
| Aircraft | A21N/M-SDE2E3FGHIRWXY/LB1 |
Departure
| Time | 2026-04-29 06:15 |
|---|---|
| Airport | Rajiv Gandhi International Airport (VOHS) |
Arrival
| Time | 2026-04-29 07:25 |
|---|---|
| Airport | Chhatrapati Shivaji Maharaj International Airport (VABB) |
| Time | Latitude | Longitude | Altitude | Speed | Heading |
|---|---|---|---|---|---|
| 2026-04-29 05:57 | 17.23414 | 78.43021 | 2007 ft | 0 kts | 340° |
| 2026-04-29 06:03 | 17.23407 | 78.43023 | 2007 ft | 3 kts | 340° |
| 2026-04-29 06:03 | 17.23389 | 78.43030 | 2004 ft | 3 kts | 340° |
| 2026-04-29 06:03 | 17.23371 | 78.43037 | 2003 ft | 3 kts | 1° |
| 2026-04-29 06:03 | 17.23352 | 78.43034 | 2004 ft | 3 kts | 36° |
| 2026-04-29 06:04 | 17.23337 | 78.43020 | 2003 ft | 3 kts | 70° |
| 2026-04-29 06:04 | 17.23334 | 78.43012 | 2003 ft | 0 kts | 84° |
| 2026-04-29 06:06 | 17.23333 | 78.43008 | 2004 ft | 0 kts | 84° |
| 2026-04-29 06:06 | 17.23332 | 78.43001 | 2004 ft | 0 kts | 84° |
| 2026-04-29 06:07 | 17.23334 | 78.43014 | 2003 ft | 3 kts | 84° |
| 2026-04-29 06:07 | 17.23338 | 78.43050 | 2005 ft | 6 kts | 84° |
| 2026-04-29 06:08 | 17.23338 | 78.43106 | 2006 ft | 9 kts | 104° |
| 2026-04-29 06:08 | 17.23332 | 78.43178 | 2006 ft | 11 kts | 87° |
| 2026-04-29 06:08 | 17.23334 | 78.43267 | 2011 ft | 13 kts | 91° |
| 2026-04-29 06:08 | 17.23335 | 78.43370 | 2012 ft | 15 kts | 89° |
| 2026-04-29 06:09 | 17.23337 | 78.43483 | 2013 ft | 16 kts | 89° |
| 2026-04-29 06:09 | 17.23339 | 78.43605 | 2014 ft | 15 kts | 89° |
| 2026-04-29 06:09 | 17.23311 | 78.43689 | 2013 ft | 13 kts | 143° |
| 2026-04-29 06:09 | 17.23213 | 78.43699 | 2016 ft | 16 kts | 180° |
| 2026-04-29 06:10 | 17.23108 | 78.43719 | 2017 ft | 16 kts | 136° |
| 2026-04-29 06:10 | 17.23096 | 78.43829 | 2018 ft | 16 kts | 89° |
| 2026-04-29 06:10 | 17.23098 | 78.43954 | 2021 ft | 18 kts | 89° |
| 2026-04-29 06:10 | 17.23100 | 78.44088 | 2025 ft | 19 kts | 88° |
| 2026-04-29 06:11 | 17.23103 | 78.44227 | 2025 ft | 19 kts | 89° |
| 2026-04-29 06:11 | 17.23106 | 78.44370 | 2027 ft | 21 kts | 88° |
| 2026-04-29 06:11 | 17.23106 | 78.44525 | 2029 ft | 22 kts | 90° |
| 2026-04-29 06:11 | 17.23108 | 78.44669 | 2033 ft | 20 kts | 89° |
| 2026-04-29 06:12 | 17.23111 | 78.44819 | 2036 ft | 17 kts | 89° |
| 2026-04-29 06:12 | 17.23111 | 78.44951 | 2040 ft | 18 kts | 90° |
| 2026-04-29 06:12 | 17.23111 | 78.45091 | 2039 ft | 20 kts | 90° |
| 2026-04-29 06:12 | 17.23112 | 78.45242 | 2040 ft | 20 kts | 88° |
| 2026-04-29 06:13 | 17.23053 | 78.45321 | 2043 ft | 15 kts | 168° |
| 2026-04-29 06:13 | 17.23029 | 78.45321 | 2038 ft | 0 kts | 183° |
| 2026-04-29 06:13 | 17.23028 | 78.45321 | 2038 ft | 1 kts | 183° |
| 2026-04-29 06:14 | 17.23004 | 78.45317 | 2039 ft | 6 kts | 191° |
| 2026-04-29 06:14 | 17.22957 | 78.45286 | 2038 ft | 10 kts | 218° |
| 2026-04-29 06:14 | 17.22915 | 78.45221 | 2038 ft | 12 kts | 259° |
| 2026-04-29 06:14 | 17.22910 | 78.45074 | 2034 ft | 44 kts | 269° |
| 2026-04-29 06:15 | 17.22901 | 78.44506 | 2031 ft | 111 kts | 269° |
| 2026-04-29 06:15 | 17.22881 | 78.43479 | 2050 ft | 167 kts | 268° |
| 2026-04-29 06:15 | 17.22815 | 78.42226 | 2729 ft | 175 kts | 266° |
| 2026-04-29 06:15 | 17.22736 | 78.40915 | 3442 ft | 189 kts | 266° |
| 2026-04-29 06:16 | 17.22660 | 78.39483 | 4104 ft | 209 kts | 266° |
| 2026-04-29 06:16 | 17.22577 | 78.37832 | 4471 ft | 246 kts | 269° |
| 2026-04-29 06:16 | 17.22638 | 78.35952 | 5075 ft | 274 kts | 276° |
| 2026-04-29 06:16 | 17.22958 | 78.33872 | 5034 ft | 286 kts | 281° |
| 2026-04-29 06:17 | 17.23386 | 78.31910 | 5031 ft | 269 kts | 284° |
| 2026-04-29 06:17 | 17.23855 | 78.30034 | 5140 ft | 268 kts | 285° |
| 2026-04-29 06:17 | 17.24366 | 78.28128 | 5520 ft | 278 kts | 286° |
| 2026-04-29 06:17 | 17.24922 | 78.26133 | 6174 ft | 292 kts | 286° |
| 2026-04-29 06:18 | 17.25506 | 78.24096 | 7381 ft | 295 kts | 287° |
| 2026-04-29 06:18 | 17.26106 | 78.22024 | 8568 ft | 301 kts | 287° |
| 2026-04-29 06:18 | 17.26720 | 78.19909 | 9704 ft | 306 kts | 287° |
| 2026-04-29 06:18 | 17.27343 | 78.17757 | 10798 ft | 312 kts | 287° |
| 2026-04-29 06:19 | 17.27978 | 78.15564 | 11848 ft | 317 kts | 287° |
| 2026-04-29 06:19 | 17.28624 | 78.13336 | 12854 ft | 323 kts | 287° |
| 2026-04-29 06:19 | 17.29280 | 78.11070 | 13844 ft | 328 kts | 287° |
| 2026-04-29 06:19 | 17.29944 | 78.08770 | 14793 ft | 333 kts | 287° |
| 2026-04-29 06:20 | 17.30610 | 78.06460 | 15710 ft | 338 kts | 287° |
| 2026-04-29 06:20 | 17.31292 | 78.04091 | 16589 ft | 343 kts | 287° |
| 2026-04-29 06:20 | 17.31985 | 78.01682 | 17461 ft | 348 kts | 287° |
| 2026-04-29 06:20 | 17.32687 | 77.99241 | 18282 ft | 353 kts | 287° |
| 2026-04-29 06:21 | 17.33398 | 77.96765 | 19103 ft | 357 kts | 287° |
| 2026-04-29 06:21 | 17.34108 | 77.94292 | 19522 ft | 354 kts | 287° |
| 2026-04-29 06:21 | 17.34823 | 77.91794 | 19799 ft | 363 kts | 287° |
| 2026-04-29 06:21 | 17.35550 | 77.89248 | 19912 ft | 366 kts | 287° |
| 2026-04-29 06:22 | 17.36276 | 77.86708 | 19998 ft | 364 kts | 287° |
| 2026-04-29 06:22 | 17.37003 | 77.84162 | 20320 ft | 365 kts | 287° |
| 2026-04-29 06:22 | 17.37730 | 77.81611 | 21009 ft | 367 kts | 286° |
| 2026-04-29 06:22 | 17.38461 | 77.79039 | 21756 ft | 371 kts | 286° |
| 2026-04-29 06:23 | 17.39200 | 77.76438 | 22463 ft | 375 kts | 286° |
| 2026-04-29 06:23 | 17.39946 | 77.73806 | 23152 ft | 379 kts | 286° |
| 2026-04-29 06:23 | 17.40699 | 77.71142 | 23823 ft | 384 kts | 286° |
| 2026-04-29 06:23 | 17.41458 | 77.68449 | 24468 ft | 388 kts | 286° |
| 2026-04-29 06:24 | 17.42223 | 77.65726 | 25099 ft | 392 kts | 286° |
| 2026-04-29 06:24 | 17.42957 | 77.62959 | 25705 ft | 396 kts | 283° |
| 2026-04-29 06:24 | 17.43529 | 77.60128 | 26307 ft | 400 kts | 281° |
| 2026-04-29 06:24 | 17.44022 | 77.57241 | 26893 ft | 404 kts | 279° |
| 2026-04-29 06:25 | 17.44476 | 77.54326 | 27456 ft | 408 kts | 279° |
| 2026-04-29 06:25 | 17.44909 | 77.51378 | 28013 ft | 412 kts | 278° |
| 2026-04-29 06:25 | 17.45329 | 77.48404 | 28504 ft | 412 kts | 278° |
| 2026-04-29 06:25 | 17.45734 | 77.45446 | 28784 ft | 411 kts | 278° |
| 2026-04-29 06:26 | 17.46136 | 77.42455 | 28912 ft | 419 kts | 278° |
| 2026-04-29 06:26 | 17.46537 | 77.39420 | 28976 ft | 421 kts | 278° |
| 2026-04-29 06:26 | 17.47323 | 77.33378 | 28988 ft | 417 kts | 277° |
| 2026-04-29 06:27 | 17.48093 | 77.27360 | 29000 ft | 418 kts | 277° |
| 2026-04-29 06:27 | 17.48860 | 77.21304 | 28999 ft | 419 kts | 277° |
| 2026-04-29 06:28 | 17.49619 | 77.15265 | 29003 ft | 417 kts | 277° |
| 2026-04-29 06:28 | 17.50373 | 77.09229 | 28998 ft | 418 kts | 277° |
| 2026-04-29 06:29 | 17.51124 | 77.03194 | 28998 ft | 418 kts | 277° |
| 2026-04-29 06:29 | 17.51871 | 76.97161 | 28999 ft | 417 kts | 277° |
| 2026-04-29 06:30 | 17.52982 | 76.88150 | 28999 ft | 418 kts | 277° |
| 2026-04-29 06:31 | 17.53722 | 76.82116 | 28998 ft | 417 kts | 277° |
| 2026-04-29 06:31 | 17.54457 | 76.76085 | 29002 ft | 418 kts | 277° |
| 2026-04-29 06:32 | 17.55292 | 76.70055 | 29007 ft | 418 kts | 287° |
| 2026-04-29 06:32 | 17.56518 | 76.67311 | 29025 ft | 417 kts | 306° |
| 2026-04-29 06:32 | 17.58528 | 76.65125 | 29029 ft | 419 kts | 324° |
| 2026-04-29 06:33 | 17.63645 | 76.62152 | 29003 ft | 420 kts | 334° |
| 2026-04-29 06:33 | 17.68897 | 76.59514 | 28995 ft | 418 kts | 334° |
| 2026-04-29 06:34 | 17.74162 | 76.56862 | 28995 ft | 420 kts | 334° |
| 2026-04-29 06:34 | 17.79391 | 76.54152 | 28994 ft | 419 kts | 333° |
| 2026-04-29 06:35 | 17.84593 | 76.51390 | 28997 ft | 420 kts | 333° |
| 2026-04-29 06:35 | 17.89790 | 76.48582 | 28996 ft | 420 kts | 332° |
| 2026-04-29 06:36 | 17.94970 | 76.45750 | 28996 ft | 419 kts | 332° |
| 2026-04-29 06:36 | 18.00152 | 76.42941 | 28997 ft | 420 kts | 333° |
| 2026-04-29 06:37 | 18.05373 | 76.40182 | 28996 ft | 419 kts | 333° |
| 2026-04-29 06:37 | 18.10587 | 76.37440 | 28997 ft | 419 kts | 333° |
| 2026-04-29 06:38 | 18.15809 | 76.34693 | 28998 ft | 420 kts | 333° |
| 2026-04-29 06:38 | 18.21034 | 76.31939 | 28998 ft | 419 kts | 333° |
| 2026-04-29 06:39 | 18.26247 | 76.29188 | 29002 ft | 420 kts | 333° |
| 2026-04-29 06:39 | 18.31474 | 76.26425 | 28998 ft | 420 kts | 333° |
| 2026-04-29 06:40 | 18.36694 | 76.23662 | 28999 ft | 419 kts | 333° |
| 2026-04-29 06:40 | 18.41887 | 76.20911 | 28999 ft | 420 kts | 333° |
| 2026-04-29 06:41 | 18.47107 | 76.18143 | 29003 ft | 420 kts | 333° |
| 2026-04-29 06:41 | 18.52327 | 76.15374 | 29002 ft | 419 kts | 333° |
| 2026-04-29 06:42 | 18.57545 | 76.12603 | 28999 ft | 420 kts | 333° |
| 2026-04-29 06:42 | 18.62762 | 76.09832 | 28999 ft | 420 kts | 333° |
| 2026-04-29 06:43 | 18.67094 | 76.07528 | 28999 ft | 419 kts | 333° |
| 2026-04-29 06:43 | 18.72306 | 76.04755 | 28999 ft | 420 kts | 333° |
| 2026-04-29 06:44 | 18.77530 | 76.01974 | 28999 ft | 421 kts | 333° |
| 2026-04-29 06:44 | 18.82751 | 75.99193 | 29003 ft | 420 kts | 333° |
| 2026-04-29 06:45 | 18.87964 | 75.96414 | 28999 ft | 420 kts | 333° |
| 2026-04-29 06:45 | 18.93179 | 75.93632 | 29003 ft | 420 kts | 333° |
| 2026-04-29 06:46 | 18.98388 | 75.90851 | 28999 ft | 419 kts | 333° |
| 2026-04-29 06:46 | 19.03593 | 75.88071 | 29003 ft | 419 kts | 333° |
| 2026-04-29 06:47 | 19.08791 | 75.85293 | 28999 ft | 419 kts | 333° |
| 2026-04-29 06:47 | 19.13991 | 75.82511 | 28999 ft | 418 kts | 333° |
| 2026-04-29 06:48 | 19.19185 | 75.79730 | 29003 ft | 419 kts | 333° |
| 2026-04-29 06:48 | 19.24391 | 75.76942 | 28999 ft | 419 kts | 333° |
| 2026-04-29 06:49 | 19.29587 | 75.74156 | 29007 ft | 418 kts | 333° |
| 2026-04-29 06:49 | 19.34775 | 75.71372 | 29002 ft | 419 kts | 333° |
| 2026-04-29 06:50 | 19.39945 | 75.68596 | 28996 ft | 405 kts | 333° |
| 2026-04-29 06:50 | 19.42404 | 75.67274 | 28812 ft | 390 kts | 333° |
| 2026-04-29 06:50 | 19.43998 | 75.66416 | 28417 ft | 388 kts | 333° |
| 2026-04-29 06:51 | 19.50888 | 75.54362 | 27032 ft | 376 kts | 276° |
| 2026-04-29 06:52 | 19.51176 | 75.51607 | 27015 ft | 376 kts | 276° |
| 2026-04-29 06:52 | 19.51445 | 75.48849 | 27008 ft | 377 kts | 276° |
| 2026-04-29 06:52 | 19.51702 | 75.46121 | 27003 ft | 377 kts | 275° |
| 2026-04-29 06:52 | 19.51964 | 75.43321 | 27003 ft | 377 kts | 275° |
| 2026-04-29 06:53 | 19.52220 | 75.40592 | 27002 ft | 377 kts | 276° |
| 2026-04-29 06:53 | 19.52482 | 75.37830 | 26831 ft | 376 kts | 276° |
| 2026-04-29 06:53 | 19.52745 | 75.35084 | 26318 ft | 374 kts | 276° |
| 2026-04-29 06:53 | 19.53008 | 75.32355 | 25736 ft | 371 kts | 276° |
| 2026-04-29 06:54 | 19.53271 | 75.29649 | 25184 ft | 367 kts | 276° |
| 2026-04-29 06:54 | 19.53533 | 75.26969 | 24635 ft | 364 kts | 276° |
| 2026-04-29 06:54 | 19.53793 | 75.24319 | 24090 ft | 360 kts | 276° |
| 2026-04-29 06:54 | 19.54052 | 75.21691 | 23533 ft | 357 kts | 276° |
| 2026-04-29 06:55 | 19.54309 | 75.19085 | 22999 ft | 353 kts | 276° |
| 2026-04-29 06:55 | 19.54564 | 75.16506 | 22462 ft | 350 kts | 276° |
| 2026-04-29 06:55 | 19.54816 | 75.13949 | 21926 ft | 347 kts | 276° |
| 2026-04-29 06:55 | 19.55067 | 75.11415 | 21395 ft | 344 kts | 276° |
| 2026-04-29 06:56 | 19.55316 | 75.08903 | 20867 ft | 341 kts | 276° |
| 2026-04-29 06:56 | 19.55563 | 75.06403 | 20412 ft | 344 kts | 276° |
| 2026-04-29 06:56 | 19.55811 | 75.03892 | 20184 ft | 340 kts | 276° |
| 2026-04-29 06:56 | 19.56055 | 75.01424 | 20085 ft | 335 kts | 276° |
| 2026-04-29 06:57 | 19.56297 | 74.98964 | 20043 ft | 337 kts | 276° |
| 2026-04-29 06:57 | 19.56541 | 74.96490 | 20019 ft | 337 kts | 276° |
| 2026-04-29 06:57 | 19.56784 | 74.94019 | 20012 ft | 336 kts | 276° |
| 2026-04-29 06:57 | 19.57025 | 74.91555 | 20010 ft | 336 kts | 276° |
| 2026-04-29 06:58 | 19.57268 | 74.89085 | 20009 ft | 337 kts | 276° |
| 2026-04-29 06:58 | 19.57511 | 74.86609 | 20008 ft | 337 kts | 276° |
| 2026-04-29 06:58 | 19.57753 | 74.84137 | 20008 ft | 337 kts | 276° |
| 2026-04-29 06:58 | 19.57993 | 74.81674 | 20005 ft | 337 kts | 276° |
| 2026-04-29 06:59 | 19.58234 | 74.79199 | 20009 ft | 337 kts | 276° |
| 2026-04-29 06:59 | 19.58476 | 74.76722 | 20006 ft | 338 kts | 276° |
| 2026-04-29 06:59 | 19.58716 | 74.74252 | 20002 ft | 337 kts | 276° |
| 2026-04-29 06:59 | 19.58956 | 74.71782 | 20004 ft | 337 kts | 276° |
| 2026-04-29 07:00 | 19.59196 | 74.69309 | 20006 ft | 338 kts | 276° |
| 2026-04-29 07:00 | 19.59436 | 74.66831 | 20003 ft | 338 kts | 276° |
| 2026-04-29 07:00 | 19.59674 | 74.64360 | 20005 ft | 337 kts | 276° |
| 2026-04-29 07:00 | 19.59913 | 74.61890 | 19776 ft | 336 kts | 276° |
| 2026-04-29 07:01 | 19.60147 | 74.59430 | 19276 ft | 334 kts | 274° |
| 2026-04-29 07:01 | 19.60070 | 74.56981 | 18744 ft | 332 kts | 263° |
| 2026-04-29 07:01 | 19.59734 | 74.54572 | 18223 ft | 329 kts | 260° |
| 2026-04-29 07:01 | 19.59301 | 74.52202 | 17709 ft | 326 kts | 258° |
| 2026-04-29 07:02 | 19.58815 | 74.49864 | 17200 ft | 323 kts | 257° |
| 2026-04-29 07:02 | 19.58296 | 74.47559 | 16695 ft | 321 kts | 256° |
| 2026-04-29 07:02 | 19.57752 | 74.45274 | 16204 ft | 318 kts | 255° |
| 2026-04-29 07:02 | 19.57193 | 74.43017 | 15701 ft | 315 kts | 255° |
| 2026-04-29 07:03 | 19.56624 | 74.40780 | 15203 ft | 313 kts | 255° |
| 2026-04-29 07:03 | 19.56048 | 74.38559 | 14673 ft | 312 kts | 254° |
| 2026-04-29 07:03 | 19.55468 | 74.36355 | 14185 ft | 309 kts | 254° |
| 2026-04-29 07:03 | 19.54887 | 74.34174 | 13700 ft | 307 kts | 254° |
| 2026-04-29 07:04 | 19.54314 | 74.32036 | 13217 ft | 305 kts | 254° |
| 2026-04-29 07:04 | 19.53726 | 74.29857 | 12729 ft | 302 kts | 254° |
| 2026-04-29 07:04 | 19.53149 | 74.27725 | 12252 ft | 300 kts | 254° |
| 2026-04-29 07:04 | 19.52582 | 74.25638 | 11782 ft | 298 kts | 254° |
| 2026-04-29 07:05 | 19.52012 | 74.23539 | 11311 ft | 295 kts | 254° |
| 2026-04-29 07:05 | 19.51446 | 74.21455 | 10833 ft | 293 kts | 254° |
| 2026-04-29 07:05 | 19.50880 | 74.19382 | 10401 ft | 295 kts | 254° |
| 2026-04-29 07:05 | 19.50311 | 74.17298 | 10182 ft | 291 kts | 254° |
| 2026-04-29 07:06 | 19.49751 | 74.15252 | 10090 ft | 289 kts | 254° |
| 2026-04-29 07:06 | 19.49190 | 74.13198 | 10043 ft | 290 kts | 254° |
| 2026-04-29 07:06 | 19.48631 | 74.11154 | 10029 ft | 289 kts | 254° |
| 2026-04-29 07:06 | 19.48071 | 74.09106 | 10021 ft | 290 kts | 254° |
| 2026-04-29 07:07 | 19.47508 | 74.07052 | 10012 ft | 290 kts | 254° |
| 2026-04-29 07:07 | 19.46947 | 74.05003 | 10018 ft | 290 kts | 254° |
| 2026-04-29 07:07 | 19.46383 | 74.02945 | 10012 ft | 291 kts | 254° |
| 2026-04-29 07:07 | 19.45820 | 74.00889 | 10013 ft | 290 kts | 254° |
| 2026-04-29 07:08 | 19.45259 | 73.98841 | 10012 ft | 290 kts | 254° |
| 2026-04-29 07:08 | 19.44695 | 73.96786 | 10013 ft | 291 kts | 254° |
| 2026-04-29 07:08 | 19.44133 | 73.94736 | 10014 ft | 289 kts | 254° |
| 2026-04-29 07:08 | 19.43571 | 73.92688 | 10005 ft | 290 kts | 254° |
| 2026-04-29 07:09 | 19.42997 | 73.90639 | 10007 ft | 291 kts | 251° |
| 2026-04-29 07:09 | 19.42287 | 73.88639 | 10008 ft | 291 kts | 247° |
| 2026-04-29 07:09 | 19.41473 | 73.86674 | 10000 ft | 290 kts | 245° |
| 2026-04-29 07:09 | 19.40609 | 73.84745 | 10009 ft | 291 kts | 244° |
| 2026-04-29 07:10 | 19.39702 | 73.82820 | 10008 ft | 291 kts | 243° |
| 2026-04-29 07:10 | 19.38777 | 73.80919 | 10000 ft | 291 kts | 242° |
| 2026-04-29 07:10 | 19.37833 | 73.79022 | 9998 ft | 290 kts | 242° |
| 2026-04-29 07:10 | 19.36884 | 73.77138 | 10007 ft | 289 kts | 242° |
| 2026-04-29 07:11 | 19.35930 | 73.75267 | 9999 ft | 288 kts | 242° |
| 2026-04-29 07:11 | 19.34976 | 73.73403 | 10005 ft | 289 kts | 242° |
| 2026-04-29 07:11 | 19.34016 | 73.71533 | 9999 ft | 288 kts | 242° |
| 2026-04-29 07:11 | 19.33057 | 73.69669 | 9820 ft | 287 kts | 241° |
| 2026-04-29 07:12 | 19.32102 | 73.67815 | 9376 ft | 288 kts | 242° |
| 2026-04-29 07:12 | 19.31144 | 73.65958 | 9118 ft | 284 kts | 241° |
| 2026-04-29 07:12 | 19.30203 | 73.64134 | 9058 ft | 283 kts | 242° |
| 2026-04-29 07:12 | 19.29255 | 73.62297 | 9030 ft | 284 kts | 242° |
| 2026-04-29 07:13 | 19.28313 | 73.60470 | 9028 ft | 283 kts | 242° |
| 2026-04-29 07:13 | 19.27366 | 73.58637 | 9013 ft | 284 kts | 241° |
| 2026-04-29 07:13 | 19.26418 | 73.56802 | 9017 ft | 284 kts | 242° |
| 2026-04-29 07:13 | 19.25472 | 73.54969 | 8849 ft | 283 kts | 241° |
| 2026-04-29 07:14 | 19.24531 | 73.53146 | 8409 ft | 282 kts | 242° |
| 2026-04-29 07:14 | 19.23608 | 73.51321 | 7938 ft | 280 kts | 245° |
| 2026-04-29 07:14 | 19.22885 | 73.49421 | 7471 ft | 278 kts | 250° |
| 2026-04-29 07:14 | 19.22264 | 73.47492 | 7027 ft | 276 kts | 252° |
| 2026-04-29 07:15 | 19.21676 | 73.45570 | 6596 ft | 274 kts | 252° |
| 2026-04-29 07:15 | 19.21100 | 73.43655 | 6168 ft | 272 kts | 252° |
| 2026-04-29 07:15 | 19.20526 | 73.41757 | 5732 ft | 270 kts | 252° |
| 2026-04-29 07:15 | 19.19954 | 73.39864 | 5350 ft | 271 kts | 252° |
| 2026-04-29 07:16 | 19.19390 | 73.37970 | 5156 ft | 267 kts | 252° |
| 2026-04-29 07:16 | 19.18838 | 73.36100 | 5011 ft | 266 kts | 253° |
| 2026-04-29 07:16 | 19.18302 | 73.34282 | 4983 ft | 251 kts | 253° |
| 2026-04-29 07:16 | 19.17798 | 73.32573 | 4886 ft | 236 kts | 253° |
| 2026-04-29 07:17 | 19.17480 | 73.31493 | 4820 ft | 227 kts | 253° |
| 2026-04-29 07:17 | 19.16881 | 73.29459 | 4656 ft | 211 kts | 253° |
| 2026-04-29 07:17 | 19.16589 | 73.28472 | 4327 ft | 215 kts | 252° |
| 2026-04-29 07:17 | 19.15991 | 73.26461 | 3823 ft | 217 kts | 252° |
| 2026-04-29 07:18 | 19.15686 | 73.25433 | 3549 ft | 217 kts | 252° |
| 2026-04-29 07:18 | 19.15236 | 73.23919 | 3268 ft | 214 kts | 252° |
| 2026-04-29 07:18 | 19.14661 | 73.21984 | 3108 ft | 201 kts | 252° |
| 2026-04-29 07:18 | 19.14241 | 73.20569 | 3043 ft | 205 kts | 253° |
| 2026-04-29 07:19 | 19.13950 | 73.19584 | 3043 ft | 208 kts | 252° |
| 2026-04-29 07:19 | 19.13379 | 73.17663 | 3039 ft | 207 kts | 252° |
| 2026-04-29 07:19 | 19.13085 | 73.16683 | 3032 ft | 207 kts | 252° |
| 2026-04-29 07:19 | 19.12651 | 73.15230 | 3017 ft | 207 kts | 253° |
| 2026-04-29 07:20 | 19.12223 | 73.13776 | 3029 ft | 207 kts | 253° |
| 2026-04-29 07:20 | 19.11793 | 73.12324 | 3010 ft | 207 kts | 253° |
| 2026-04-29 07:20 | 19.11365 | 73.10892 | 3016 ft | 208 kts | 253° |
| 2026-04-29 07:20 | 19.10990 | 73.09397 | 2955 ft | 209 kts | 257° |
| 2026-04-29 07:21 | 19.10696 | 73.07918 | 2838 ft | 204 kts | 259° |
| 2026-04-29 07:21 | 19.10449 | 73.06451 | 2703 ft | 196 kts | 261° |
| 2026-04-29 07:21 | 19.10233 | 73.05056 | 2629 ft | 187 kts | 261° |
| 2026-04-29 07:21 | 19.10039 | 73.03725 | 2575 ft | 184 kts | 261° |
| 2026-04-29 07:22 | 19.09861 | 73.02443 | 2525 ft | 169 kts | 262° |
| 2026-04-29 07:22 | 19.09708 | 73.01280 | 2533 ft | 153 kts | 262° |
| 2026-04-29 07:22 | 19.09550 | 73.00131 | 2417 ft | 160 kts | 261° |
| 2026-04-29 07:22 | 19.09384 | 72.98987 | 2200 ft | 154 kts | 263° |
| 2026-04-29 07:23 | 19.09259 | 72.97871 | 1945 ft | 153 kts | 264° |
| 2026-04-29 07:23 | 19.09152 | 72.96740 | 1626 ft | 154 kts | 265° |
| 2026-04-29 07:23 | 19.09061 | 72.95630 | 1383 ft | 152 kts | 265° |
| 2026-04-29 07:23 | 19.08971 | 72.94486 | 1192 ft | 156 kts | 265° |
| 2026-04-29 07:24 | 19.08923 | 72.93340 | 986 ft | 156 kts | 269° |
| 2026-04-29 07:24 | 19.08921 | 72.92191 | 753 ft | 157 kts | 270° |
| 2026-04-29 07:24 | 19.08923 | 72.91047 | 572 ft | 153 kts | 270° |
| 2026-04-29 07:24 | 19.08919 | 72.89910 | 400 ft | 157 kts | 269° |
| 2026-04-29 07:25 | 19.08900 | 72.88762 | 207 ft | 155 kts | 268° |
| 2026-04-29 07:25 | 19.08883 | 72.87629 | 50 ft | 154 kts | 270° |
| 2026-04-29 07:25 | 19.08868 | 72.86609 | 33 ft | 100 kts | 269° |
| 2026-04-29 07:25 | 19.08864 | 72.86116 | 29 ft | 49 kts | 270° |
| 2026-04-29 07:26 | 19.08910 | 72.85915 | 30 ft | 19 kts | 296° |
| 2026-04-29 07:26 | 19.08942 | 72.85851 | 30 ft | 0 kts | 299° |
| 2026-04-29 07:27 | 19.08960 | 72.85819 | 30 ft | 9 kts | 300° |
| 2026-04-29 07:28 | 19.08993 | 72.85762 | 30 ft | 9 kts | 302° |
| 2026-04-29 07:28 | 19.09025 | 72.85699 | 30 ft | 10 kts | 291° |
| 2026-04-29 07:28 | 19.09031 | 72.85632 | 30 ft | 9 kts | 285° |
| 2026-04-29 07:28 | 19.09079 | 72.85594 | 31 ft | 8 kts | 324° |
| 2026-04-29 07:29 | 19.09102 | 72.85568 | 31 ft | 0 kts | 329° |
| 2026-04-29 07:29 | 19.09129 | 72.85565 | 32 ft | 6 kts | 354° |
| 2026-04-29 07:29 | 19.09155 | 72.85564 | 33 ft | 1 kts | 359° |
| 2026-04-29 07:29 | 19.09157 | 72.85564 | 33 ft | 1 kts | 359° |
| 2026-04-29 07:30 | 19.09163 | 72.85564 | 33 ft | 0 kts | 359° |
| 2026-04-29 07:30 | 19.09164 | 72.85564 | 33 ft | 0 kts | 359° |
| 2026-04-29 07:30 | 19.09166 | 72.85564 | 33 ft | 0 kts | 359° |